createdAt,value
2023-05-05T00:02:17.899Z,12.50
2023-05-05T00:06:00.019Z,12.50
2023-05-05T00:09:42.679Z,12.60
2023-05-05T00:13:25.027Z,12.60
2023-05-05T00:17:06.963Z,12.60
2023-05-05T00:20:49.164Z,12.60
2023-05-05T00:24:31.259Z,12.60
2023-05-05T00:28:14.335Z,12.60
2023-05-05T00:31:56.602Z,12.60
2023-05-05T00:35:38.571Z,12.60
2023-05-05T00:39:20.561Z,12.60
2023-05-05T00:43:02.943Z,12.60
2023-05-05T00:46:45.428Z,12.60
2023-05-05T00:50:29.840Z,12.60
2023-05-05T00:54:11.780Z,12.60
2023-05-05T00:57:53.959Z,12.60
2023-05-05T01:01:36.349Z,12.60
2023-05-05T01:05:21.553Z,12.60
2023-05-05T01:09:24.101Z,12.60
2023-05-05T01:13:06.083Z,12.50
2023-05-05T01:17:02.634Z,12.50
2023-05-05T01:21:11.224Z,12.40
2023-05-05T01:25:11.791Z,12.30
2023-05-05T01:29:28.910Z,12.30
2023-05-05T01:33:14.791Z,12.30
2023-05-05T01:37:10.123Z,12.20
2023-05-05T01:41:10.267Z,12.30
2023-05-05T01:44:53.374Z,12.30
2023-05-05T01:48:36.984Z,12.30
2023-05-05T01:52:19.826Z,12.20
2023-05-05T01:56:02.753Z,12.20
2023-05-05T01:59:44.653Z,12.20
2023-05-05T02:03:28.878Z,12.30
2023-05-05T02:07:13.240Z,12.30
2023-05-05T02:10:56.098Z,12.30
2023-05-05T02:14:40.404Z,12.40
2023-05-05T02:18:23.605Z,12.40
2023-05-05T02:22:05.966Z,12.40
2023-05-05T02:25:51.341Z,12.40
2023-05-05T02:29:36.543Z,12.40
2023-05-05T02:33:21.427Z,12.40
2023-05-05T02:37:07.603Z,12.40
2023-05-05T02:40:51.729Z,12.30
2023-05-05T02:44:36.057Z,12.30
2023-05-05T02:48:17.976Z,12.30
2023-05-05T02:52:01.304Z,12.30
2023-05-05T02:55:52.538Z,12.30
2023-05-05T02:59:56.642Z,12.30
2023-05-05T03:03:52.043Z,12.30
2023-05-05T03:07:55.251Z,12.30
2023-05-05T03:12:00.939Z,12.20
2023-05-05T03:15:49.340Z,12.20
2023-05-05T03:19:32.178Z,12.20
2023-05-05T03:23:14.669Z,12.20
2023-05-05T03:26:57.673Z,12.20
2023-05-05T03:30:39.793Z,12.20
2023-05-05T03:34:21.741Z,12.20
2023-05-05T03:38:03.690Z,12.30
2023-05-05T03:41:45.698Z,12.30
2023-05-05T03:45:27.626Z,12.30
2023-05-05T03:49:09.882Z,12.20
2023-05-05T03:52:51.781Z,12.20
2023-05-05T03:56:33.674Z,12.20
2023-05-05T04:00:16.087Z,12.20
2023-05-05T04:03:58.053Z,12.20
2023-05-05T04:07:39.979Z,12.10
2023-05-05T04:11:22.050Z,12.10
2023-05-05T04:15:04.405Z,12.10
2023-05-05T04:18:46.343Z,12.20
2023-05-05T04:22:28.237Z,12.20
2023-05-05T04:26:10.140Z,12.10
2023-05-05T04:29:53.386Z,12.10
2023-05-05T04:33:35.317Z,12.10
2023-05-05T04:37:17.184Z,12.10
2023-05-05T04:41:00.051Z,12.10
2023-05-05T04:44:42.027Z,12.10
2023-05-05T04:48:24.022Z,12.10
2023-05-05T04:52:07.149Z,12.10
2023-05-05T04:55:49.162Z,12.10
2023-05-05T04:59:31.291Z,12.10
2023-05-05T05:03:13.215Z,12.20
2023-05-05T05:06:57.490Z,12.20
2023-05-05T05:10:40.931Z,12.20
2023-05-05T05:14:22.856Z,12.20
2023-05-05T05:18:05.464Z,12.10
2023-05-05T05:21:47.371Z,12.20
2023-05-05T05:25:29.344Z,12.20
2023-05-05T05:29:11.243Z,12.20
2023-05-05T05:32:53.195Z,12.20
2023-05-05T05:36:35.139Z,12.20
2023-05-05T05:40:17.253Z,12.20
2023-05-05T05:43:59.130Z,12.30
2023-05-05T05:47:41.116Z,12.30
2023-05-05T05:51:23.095Z,12.30
2023-05-05T05:55:05.868Z,12.30
2023-05-05T05:58:48.775Z,12.30
2023-05-05T06:02:31.038Z,12.40
2023-05-05T06:06:12.981Z,12.30
2023-05-05T06:09:54.882Z,12.30
2023-05-05T06:13:36.765Z,12.40
2023-05-05T06:17:18.660Z,12.40
2023-05-05T06:21:00.599Z,12.40
2023-05-05T06:24:42.512Z,12.40
2023-05-05T06:28:24.428Z,12.50
2023-05-05T06:32:08.376Z,12.50
2023-05-05T06:35:52.303Z,12.60
2023-05-05T06:39:34.217Z,12.60
2023-05-05T06:43:16.873Z,12.70
2023-05-05T06:46:58.821Z,12.80
2023-05-05T06:50:41.004Z,13.00
2023-05-05T06:54:22.897Z,13.10
2023-05-05T06:58:04.774Z,13.30
2023-05-05T07:01:46.742Z,13.50
2023-05-05T07:05:28.765Z,13.60
2023-05-05T07:09:10.841Z,13.80
2023-05-05T07:12:54.884Z,14.00
2023-05-05T07:16:37.322Z,14.00
2023-05-05T07:20:19.366Z,13.90
2023-05-05T07:24:02.356Z,13.90
2023-05-05T07:27:44.352Z,13.90
2023-05-05T07:31:26.614Z,13.80
2023-05-05T07:35:09.105Z,13.80
2023-05-05T07:38:51.050Z,13.80
2023-05-05T07:42:32.953Z,13.80
2023-05-05T07:46:15.016Z,13.90
2023-05-05T07:49:57.301Z,13.90
2023-05-05T07:53:41.243Z,14.00
2023-05-05T07:57:23.162Z,13.90
2023-05-05T08:01:06.595Z,13.80
2023-05-05T08:04:48.565Z,13.80
2023-05-05T08:08:30.517Z,13.80
2023-05-05T08:12:12.458Z,13.90
2023-05-05T08:15:54.523Z,14.00
2023-05-05T08:19:36.529Z,14.10
2023-05-05T08:23:18.519Z,14.20
2023-05-05T08:27:00.795Z,14.30
2023-05-05T08:30:42.905Z,14.50
2023-05-05T08:34:24.886Z,14.50
2023-05-05T08:38:06.805Z,14.50
2023-05-05T08:41:48.940Z,14.50
2023-05-05T08:45:31.690Z,14.40
2023-05-05T08:49:16.476Z,14.60
2023-05-05T08:53:10.566Z,14.80
2023-05-05T08:56:53.712Z,15.10
2023-05-05T09:00:37.005Z,15.40
2023-05-05T09:04:19.272Z,15.40
2023-05-05T09:08:01.898Z,15.40
2023-05-05T09:11:45.113Z,15.40
2023-05-05T09:15:28.423Z,15.40
2023-05-05T09:19:10.566Z,15.40
2023-05-05T09:22:53.263Z,15.40
2023-05-05T09:26:37.416Z,15.40
2023-05-05T09:30:24.965Z,15.40
2023-05-05T09:34:17.295Z,15.50
2023-05-05T09:38:11.820Z,15.60
2023-05-05T09:41:53.771Z,15.70
2023-05-05T09:45:35.738Z,15.70
2023-05-05T09:49:19.660Z,15.70
2023-05-05T09:53:03.282Z,15.80
2023-05-05T09:56:45.219Z,15.90
2023-05-05T10:00:39.658Z,16.00
2023-05-05T10:04:26.900Z,16.20
2023-05-05T10:08:13.725Z,16.20
2023-05-05T10:11:57.941Z,16.80
2023-05-05T10:15:44.021Z,17.60
2023-05-05T10:19:28.632Z,18.40
2023-05-05T10:23:15.602Z,19.10
2023-05-05T10:27:00.742Z,19.50
2023-05-05T10:30:46.065Z,20.00
2023-05-05T10:34:42.233Z,20.80
2023-05-05T10:38:26.865Z,20.80
2023-05-05T10:42:08.863Z,20.40
2023-05-05T10:45:51.141Z,19.70
2023-05-05T10:49:40.806Z,19.10
2023-05-05T10:53:33.708Z,18.90
2023-05-05T10:57:18.942Z,18.40
2023-05-05T11:01:01.091Z,18.30
2023-05-05T11:04:43.010Z,18.40
2023-05-05T11:08:26.527Z,18.00
2023-05-05T11:12:09.231Z,17.70
2023-05-05T11:15:55.548Z,17.60
2023-05-05T11:19:43.299Z,17.50
2023-05-05T11:23:26.320Z,17.50
2023-05-05T11:27:08.314Z,17.60
2023-05-05T11:30:59.414Z,18.50
2023-05-05T11:34:51.558Z,19.10
2023-05-05T11:38:36.279Z,19.50
2023-05-05T11:42:28.629Z,19.70
2023-05-05T11:46:12.424Z,19.70
2023-05-05T11:49:55.609Z,19.70
2023-05-05T11:53:37.665Z,19.90
2023-05-05T11:57:27.226Z,19.60
2023-05-05T12:01:09.479Z,19.50
2023-05-05T12:04:52.452Z,19.80
2023-05-05T12:08:41.726Z,19.70
2023-05-05T12:12:40.720Z,19.40
2023-05-05T12:16:22.943Z,18.90
2023-05-05T12:20:05.399Z,18.70
2023-05-05T12:23:47.648Z,18.60
2023-05-05T12:27:29.884Z,18.70
2023-05-05T12:31:12.186Z,18.90
2023-05-05T12:34:56.343Z,19.00
2023-05-05T12:38:38.872Z,18.90
2023-05-05T12:42:22.049Z,18.80
2023-05-05T12:46:05.998Z,18.70
2023-05-05T12:49:51.829Z,18.70
2023-05-05T12:53:33.815Z,18.80
2023-05-05T12:57:15.691Z,19.60
2023-05-05T13:01:10.939Z,20.60
2023-05-05T13:04:54.126Z,21.20
2023-05-05T13:08:43.277Z,21.00
2023-05-05T13:12:25.267Z,21.30
2023-05-05T13:16:07.932Z,21.70
2023-05-05T13:19:49.863Z,22.30
2023-05-05T13:23:31.761Z,22.10
2023-05-05T13:27:13.880Z,21.50
2023-05-05T13:30:56.305Z,21.20
2023-05-05T13:34:39.363Z,21.20
2023-05-05T13:38:21.466Z,21.20
2023-05-05T13:42:03.458Z,21.30
2023-05-05T13:45:45.752Z,21.50
2023-05-05T13:49:27.957Z,22.00
2023-05-05T13:53:09.993Z,22.10
2023-05-05T13:56:51.958Z,21.50
2023-05-05T14:00:34.868Z,20.40
2023-05-05T14:04:16.809Z,19.90
2023-05-05T14:07:59.616Z,19.60
2023-05-05T14:11:41.544Z,19.10
2023-05-05T14:15:23.539Z,18.80
2023-05-05T14:19:05.455Z,18.70
2023-05-05T14:22:49.343Z,19.30
2023-05-05T14:26:31.327Z,20.00
2023-05-05T14:30:13.708Z,20.30
2023-05-05T14:33:55.767Z,20.20
2023-05-05T14:37:37.680Z,20.00
2023-05-05T14:41:19.608Z,19.70
2023-05-05T14:45:03.552Z,19.40
2023-05-05T14:48:46.530Z,19.30
2023-05-05T14:52:28.439Z,19.10
2023-05-05T14:56:10.310Z,18.90
2023-05-05T14:59:53.111Z,18.90
2023-05-05T15:03:35.339Z,19.10
2023-05-05T15:07:17.331Z,19.50
2023-05-05T15:10:59.237Z,19.70
2023-05-05T15:14:41.158Z,19.50
2023-05-05T15:18:23.100Z,19.70
2023-05-05T15:22:05.018Z,20.10
2023-05-05T15:25:46.904Z,20.40
2023-05-05T15:29:28.800Z,20.30
2023-05-05T15:33:10.779Z,20.10
2023-05-05T15:36:52.786Z,19.80
2023-05-05T15:40:34.787Z,19.70
2023-05-05T15:44:16.695Z,19.80
2023-05-05T15:47:58.629Z,19.90
2023-05-05T15:51:40.879Z,19.90
2023-05-05T15:55:24.250Z,19.90
2023-05-05T15:59:06.275Z,19.70
2023-05-05T16:02:48.204Z,19.40
2023-05-05T16:06:30.520Z,19.00
2023-05-05T16:10:12.488Z,18.80
2023-05-05T16:13:54.425Z,18.70
2023-05-05T16:17:36.371Z,18.70
2023-05-05T16:21:18.346Z,18.70
2023-05-05T16:25:00.392Z,18.60
2023-05-05T16:28:42.305Z,18.50
2023-05-05T16:32:24.188Z,18.30
2023-05-05T16:36:12.916Z,18.10
2023-05-05T16:39:54.801Z,17.80
2023-05-05T16:43:37.324Z,17.70
2023-05-05T16:47:19.267Z,17.80
2023-05-05T16:51:01.218Z,17.70
2023-05-05T16:54:43.637Z,17.70
2023-05-05T16:58:25.527Z,17.60
2023-05-05T17:02:07.697Z,17.50
2023-05-05T17:05:50.505Z,17.40
2023-05-05T17:09:32.470Z,17.30
2023-05-05T17:13:15.114Z,17.20
2023-05-05T17:16:57.084Z,17.10
2023-05-05T17:20:39.082Z,17.00
2023-05-05T17:24:21.232Z,16.70
2023-05-05T17:28:03.252Z,16.60
2023-05-05T17:31:45.430Z,16.60
2023-05-05T17:35:27.465Z,16.50
2023-05-05T17:39:11.408Z,16.40
2023-05-05T17:42:53.304Z,16.30
2023-05-05T17:46:35.307Z,16.20
2023-05-05T17:50:17.360Z,16.20
2023-05-05T17:53:59.253Z,16.10
2023-05-05T17:57:41.195Z,16.10
2023-05-05T18:01:24.066Z,16.00
2023-05-05T18:05:06.476Z,15.90
2023-05-05T18:08:48.451Z,15.90
2023-05-05T18:12:30.357Z,15.80
2023-05-05T18:16:12.270Z,15.70
2023-05-05T18:19:54.524Z,15.60
2023-05-05T18:23:36.440Z,15.50
2023-05-05T18:27:18.437Z,15.40
2023-05-05T18:31:00.400Z,15.30
2023-05-05T18:34:42.408Z,15.30
2023-05-05T18:38:24.292Z,15.20
2023-05-05T18:42:07.901Z,15.10
2023-05-05T18:45:51.155Z,15.00
2023-05-05T18:49:33.453Z,14.90
2023-05-05T18:53:17.746Z,14.80
2023-05-05T18:56:59.809Z,14.80
2023-05-05T19:00:41.779Z,14.70
2023-05-05T19:04:31.419Z,14.60
2023-05-05T19:08:13.821Z,14.50
2023-05-05T19:11:56.301Z,14.50
2023-05-05T19:15:38.231Z,14.40
2023-05-05T19:19:20.166Z,14.30
2023-05-05T19:23:04.539Z,14.20
2023-05-05T19:26:46.452Z,14.10
2023-05-05T19:30:28.402Z,14.10
2023-05-05T19:34:10.326Z,14.00
2023-05-05T19:37:52.236Z,14.00
2023-05-05T19:41:35.492Z,13.90
2023-05-05T19:45:17.608Z,13.90
2023-05-05T19:48:59.491Z,13.90
2023-05-05T19:52:41.971Z,14.00
2023-05-05T19:56:23.993Z,14.00
2023-05-05T20:00:07.382Z,14.00
2023-05-05T20:03:49.828Z,14.00
2023-05-05T20:07:31.778Z,14.10
2023-05-05T20:11:15.164Z,14.10
2023-05-05T20:14:57.075Z,14.20
2023-05-05T20:18:39.741Z,14.20
2023-05-05T20:22:21.639Z,14.20
2023-05-05T20:26:03.792Z,14.20
2023-05-05T20:29:45.711Z,14.30
2023-05-05T20:33:28.921Z,14.30
2023-05-05T20:37:12.438Z,14.20
2023-05-05T20:40:55.838Z,14.20
2023-05-05T20:44:38.314Z,14.10
2023-05-05T20:48:20.234Z,14.00
2023-05-05T20:52:03.199Z,13.80
2023-05-05T20:55:45.970Z,13.70
2023-05-05T20:59:29.069Z,13.60
2023-05-05T21:03:11.150Z,13.50
2023-05-05T21:06:53.061Z,13.40
2023-05-05T21:10:34.971Z,13.40
2023-05-05T21:14:16.949Z,13.30
2023-05-05T21:17:59.003Z,13.30
2023-05-05T21:21:40.957Z,13.30
2023-05-05T21:25:23.224Z,13.30
2023-05-05T21:29:05.166Z,13.30
2023-05-05T21:32:47.161Z,13.30
2023-05-05T21:36:30.075Z,13.20
2023-05-05T21:40:14.009Z,13.20
2023-05-05T21:43:56.179Z,13.10
2023-05-05T21:47:38.104Z,13.00
2023-05-05T21:51:22.602Z,13.00
2023-05-05T21:55:04.929Z,12.90
2023-05-05T21:58:46.892Z,12.90
2023-05-05T22:02:28.887Z,13.00
2023-05-05T22:06:11.742Z,13.10
2023-05-05T22:09:53.713Z,13.10
2023-05-05T22:13:36.138Z,13.10
2023-05-05T22:17:18.660Z,13.10
2023-05-05T22:21:01.220Z,13.10
2023-05-05T22:24:43.177Z,13.10
2023-05-05T22:28:25.066Z,13.10
2023-05-05T22:32:07.564Z,13.20
2023-05-05T22:35:49.571Z,13.20
2023-05-05T22:39:32.622Z,13.30
2023-05-05T22:43:14.521Z,13.30
2023-05-05T22:46:56.524Z,13.40
2023-05-05T22:50:38.573Z,13.40
2023-05-05T22:54:20.889Z,13.50
2023-05-05T22:58:03.319Z,13.50
2023-05-05T23:01:45.324Z,13.50
2023-05-05T23:05:27.261Z,13.60
2023-05-05T23:09:09.436Z,13.60
2023-05-05T23:12:52.023Z,13.60
2023-05-05T23:16:34.070Z,13.60
2023-05-05T23:20:16.055Z,13.60
2023-05-05T23:23:58.048Z,13.60
2023-05-05T23:27:40.323Z,13.60
2023-05-05T23:31:22.344Z,13.60
2023-05-05T23:35:04.536Z,13.60
2023-05-05T23:38:46.418Z,13.50
2023-05-05T23:42:28.303Z,13.50
2023-05-05T23:46:10.187Z,13.50
2023-05-05T23:49:52.076Z,13.40
2023-05-05T23:53:33.967Z,13.40
2023-05-05T23:57:16.123Z,13.40
